Time;durP1;ratioP1;P1;durP2;ratioP2;P2;SDS_P1;SDS_P2;PMS_P1;PMS_P2;Temp;Humidity;BMP_temperature;BMP_pressure;BME280_temperature;BME280_humidity;BME280_pressure;Samples;Min_cycle;Max_cycle;Signal;HPM_P1;HPM_P2
2023/03/13 00:01:40;;;;;;;14.32;3.80;;;11.40;77.30;;;;;;5089039;28;20044;-63
2023/03/13 00:04:07;;;;;;;15.40;3.95;;;11.40;77.40;;;;;;5080257;28;20464;-63
2023/03/13 00:06:35;;;;;;;13.43;3.50;;;11.40;77.60;;;;;;5073400;28;20111;-64
2023/03/13 00:09:05;;;;;;;18.25;3.38;;;11.40;77.70;;;;;;5081615;28;20047;-63
2023/03/13 00:11:31;;;;;;;21.23;3.85;;;11.40;77.80;;;;;;5077514;28;20111;-63
2023/03/13 00:13:59;;;;;;;17.17;3.85;;;11.40;77.90;;;;;;5077935;28;20032;-63
2023/03/13 00:16:26;;;;;;;15.55;3.65;;;11.40;78.00;;;;;;5082275;28;20051;-63
2023/03/13 00:18:54;;;;;;;14.73;3.88;;;11.40;78.10;;;;;;5094647;28;20033;-63
2023/03/13 00:21:22;;;;;;;14.38;3.85;;;11.40;78.20;;;;;;5093105;28;20107;-63
2023/03/13 00:23:48;;;;;;;15.82;4.15;;;11.40;78.30;;;;;;5095336;28;20030;-63
2023/03/13 00:26:17;;;;;;;17.25;4.32;;;11.30;78.40;;;;;;5091820;28;20027;-63
2023/03/13 00:28:43;;;;;;;17.00;3.72;;;11.40;78.60;;;;;;5093458;28;20115;-63
2023/03/13 00:31:18;;;;;;;14.35;3.05;;;11.30;78.60;;;;;;5091868;28;20024;-63
2023/03/13 00:33:46;;;;;;;14.07;3.80;;;11.40;78.80;;;;;;5088907;28;20024;-63
2023/03/13 00:36:14;;;;;;;13.20;3.50;;;11.30;78.70;;;;;;5094964;28;20024;-63
2023/03/13 00:38:40;;;;;;;14.95;3.20;;;11.30;78.80;;;;;;5093013;28;20019;-63
2023/03/13 00:41:11;;;;;;;15.90;4.20;;;11.30;78.90;;;;;;5091877;28;20035;-63
2023/03/13 00:43:38;;;;;;;12.25;3.70;;;11.30;79.00;;;;;;5086646;28;20430;-63
2023/03/13 00:46:04;;;;;;;13.13;3.50;;;11.30;79.00;;;;;;5094184;28;20047;-63
2023/03/13 00:48:30;;;;;;;20.45;4.53;;;11.30;79.20;;;;;;5093058;28;20047;-63
2023/03/13 00:50:56;;;;;;;11.48;3.10;;;11.30;79.30;;;;;;5094669;28;20175;-63
2023/03/13 00:53:22;;;;;;;13.18;3.60;;;11.20;79.40;;;;;;5072426;28;20129;-63
2023/03/13 00:56:01;;;;;;;15.63;3.50;;;11.20;79.60;;;;;;5095236;28;20024;-63
2023/03/13 00:58:29;;;;;;;17.05;3.55;;;11.20;79.90;;;;;;5095889;28;20468;-63
2023/03/13 01:00:55;;;;;;;15.10;3.75;;;11.20;79.90;;;;;;5093446;28;20095;-63
2023/03/13 01:03:24;;;;;;;13.25;3.78;;;11.20;80.10;;;;;;5090817;28;20038;-63
2023/03/13 01:05:57;;;;;;;11.82;2.83;;;11.20;80.20;;;;;;5098703;28;20455;-63
2023/03/13 01:08:25;;;;;;;13.55;3.65;;;11.20;80.40;;;;;;5097638;28;20042;-63
2023/03/13 01:11:01;;;;;;;19.95;3.92;;;11.20;80.40;;;;;;5096030;28;20052;-63
2023/03/13 01:13:29;;;;;;;11.60;3.05;;;11.20;80.60;;;;;;5085489;28;20464;-63
2023/03/13 01:15:56;;;;;;;12.57;3.20;;;11.20;80.70;;;;;;5087265;28;20028;-64
2023/03/13 01:18:22;;;;;;;13.90;4.07;;;11.20;80.80;;;;;;5081492;28;20186;-62
2023/03/13 01:20:48;;;;;;;13.63;3.38;;;11.20;81.00;;;;;;5093140;28;20464;-63
2023/03/13 01:23:14;;;;;;;15.10;4.28;;;11.10;81.10;;;;;;5077682;28;20031;-63
2023/03/13 01:25:40;;;;;;;13.40;3.17;;;11.10;81.30;;;;;;5082990;28;20019;-64
2023/03/13 01:28:06;;;;;;;13.25;3.45;;;11.10;81.40;;;;;;5091191;28;20458;-63
2023/03/13 01:30:31;;;;;;;12.65;3.08;;;11.10;81.50;;;;;;5093053;28;20027;-64
2023/03/13 01:32:57;;;;;;;15.63;3.72;;;11.10;81.60;;;;;;5089823;28;20357;-64
2023/03/13 01:35:23;;;;;;;14.77;3.85;;;11.10;81.70;;;;;;5093394;28;20024;-63
2023/03/13 01:37:49;;;;;;;12.20;2.92;;;11.10;81.80;;;;;;5093127;28;20038;-63
2023/03/13 01:40:15;;;;;;;15.50;3.25;;;11.10;82.00;;;;;;5093448;28;20073;-63
2023/03/13 01:42:59;;;;;;;12.13;3.10;;;11.20;82.10;;;;;;5091873;28;20028;-63
2023/03/13 01:46:02;;;;;;;14.23;3.65;;;11.20;82.20;;;;;;5108575;28;20096;-63
2023/03/13 01:48:35;;;;;;;12.30;3.13;;;11.20;82.20;;;;;;5093316;28;20025;-63
2023/03/13 01:51:07;;;;;;;12.35;3.15;;;11.20;82.90;;;;;;5092596;28;20038;-63
2023/03/13 01:53:35;;;;;;;11.85;3.45;;;11.20;82.50;;;;;;5085470;28;20421;-63
2023/03/13 01:56:07;;;;;;;11.60;3.33;;;11.20;82.50;;;;;;5092246;28;20020;-65
2023/03/13 01:58:32;;;;;;;9.43;3.33;;;11.20;82.70;;;;;;5091224;28;20032;-63
2023/03/13 02:00:59;;;;;;;9.35;2.25;;;11.20;82.60;;;;;;5091505;28;20510;-63
2023/03/13 02:03:27;;;;;;;11.98;2.83;;;11.20;82.70;;;;;;5091878;28;20283;-63
2023/03/13 02:05:55;;;;;;;9.52;3.13;;;11.30;82.90;;;;;;5078465;28;20540;-63
2023/03/13 02:08:29;;;;;;;13.02;3.22;;;11.30;82.90;;;;;;5097035;28;20047;-63
2023/03/13 02:11:29;;;;;;;8.35;3.08;;;11.30;83.10;;;;;;5096103;28;20043;-63
2023/03/13 02:13:57;;;;;;;11.10;2.50;;;11.30;83.20;;;;;;5087057;28;20040;-63
2023/03/13 02:16:23;;;;;;;9.13;2.88;;;11.30;83.10;;;;;;5090519;28;20068;-63
2023/03/13 02:18:49;;;;;;;6.97;2.63;;;11.30;83.20;;;;;;5096912;28;20028;-63
2023/03/13 02:21:24;;;;;;;9.90;2.47;;;11.30;83.30;;;;;;5097137;28;20020;-63
2023/03/13 02:24:00;;;;;;;7.75;2.92;;;11.30;83.40;;;;;;5096593;28;20071;-63
2023/03/13 02:26:26;;;;;;;10.55;2.60;;;11.40;83.60;;;;;;5095366;28;20076;-63
2023/03/13 02:28:51;;;;;;;10.13;2.63;;;11.40;83.60;;;;;;5096198;28;20360;-63
2023/03/13 02:31:18;;;;;;;6.43;2.33;;;11.30;83.60;;;;;;5095079;28;20032;-63
2023/03/13 02:33:45;;;;;;;11.23;2.83;;;11.40;83.70;;;;;;5095996;28;20105;-63
2023/03/13 02:36:16;;;;;;;7.22;2.90;;;11.40;83.80;;;;;;5090461;28;20028;-63
2023/03/13 02:38:52;;;;;;;7.57;2.90;;;11.40;83.90;;;;;;5097000;28;20024;-63
2023/03/13 02:41:20;;;;;;;9.55;2.72;;;11.40;84.00;;;;;;5095341;28;20028;-63
2023/03/13 02:43:46;;;;;;;9.75;2.60;;;11.40;84.10;;;;;;5096180;28;20046;-63
2023/03/13 02:46:14;;;;;;;8.85;2.88;;;11.50;84.20;;;;;;5084496;28;20028;-63
2023/03/13 02:48:44;;;;;;;;;;;11.50;84.30;;;;;;5091580;28;20108;-63
2023/03/13 02:51:16;;;;;;;7.68;2.80;;;11.50;84.10;;;;;;5106959;28;19908;-63
2023/03/13 02:53:43;;;;;;;10.15;3.22;;;11.40;84.10;;;;;;5096324;28;20024;-63
2023/03/13 02:56:13;;;;;;;10.73;3.42;;;11.50;84.20;;;;;;5095618;28;20028;-63
2023/03/13 02:58:42;;;;;;;8.30;3.45;;;11.50;84.40;;;;;;5078938;28;20030;-63
2023/03/13 03:01:09;;;;;;;8.07;3.10;;;11.60;84.50;;;;;;5092846;28;20034;-63
2023/03/13 03:03:37;;;;;;;9.85;3.50;;;11.60;84.60;;;;;;5109555;28;20107;-63
2023/03/13 03:06:05;;;;;;;8.45;3.00;;;11.60;84.60;;;;;;5100207;28;20107;-63
2023/03/13 03:08:32;;;;;;;12.48;4.03;;;11.60;84.70;;;;;;5101017;28;20123;-63
2023/03/13 03:10:58;;;;;;;11.15;4.07;;;11.60;84.70;;;;;;5094925;28;20135;-63
2023/03/13 03:13:24;;;;;;;9.57;3.33;;;11.70;84.90;;;;;;5095600;28;20111;-63
2023/03/13 03:15:50;;;;;;;8.82;3.47;;;11.70;84.90;;;;;;5092989;28;20131;-63
2023/03/13 03:18:16;;;;;;;6.22;3.50;;;11.70;85.00;;;;;;5095527;28;20016;-63
2023/03/13 03:20:41;;;;;;;9.07;3.90;;;11.70;85.00;;;;;;5099546;28;20084;-63
2023/03/13 03:23:07;;;;;;;7.47;3.40;;;11.70;85.10;;;;;;5094317;28;20161;-63
2023/03/13 03:25:33;;;;;;;11.32;3.95;;;11.80;85.20;;;;;;5094529;28;20096;-63
2023/03/13 03:27:59;;;;;;;8.93;3.90;;;11.80;85.30;;;;;;5095511;28;20042;-63
2023/03/13 03:30:27;;;;;;;9.38;3.97;;;11.80;85.40;;;;;;5093606;28;20020;-63
2023/03/13 03:32:53;;;;;;;8.77;3.75;;;11.80;85.50;;;;;;5093764;28;20028;-63
2023/03/13 03:35:21;;;;;;;5.75;3.08;;;11.90;85.60;;;;;;5093758;28;20028;-63
2023/03/13 03:37:46;;;;;;;8.10;3.38;;;11.90;85.60;;;;;;5090111;28;20027;-63
2023/03/13 03:40:13;;;;;;;8.27;3.78;;;11.90;85.70;;;;;;5092166;28;20022;-63
2023/03/13 03:42:38;;;;;;;7.05;3.50;;;11.90;85.80;;;;;;5073067;28;20017;-63
2023/03/13 03:45:05;;;;;;;8.00;3.35;;;11.90;85.90;;;;;;5106051;28;20393;-63
2023/03/13 03:47:31;;;;;;;10.88;3.33;;;11.90;86.00;;;;;;5101024;28;20028;-63
2023/03/13 03:49:57;;;;;;;8.02;3.47;;;11.90;86.00;;;;;;5081977;28;20221;-64
2023/03/13 03:52:23;;;;;;;9.18;3.33;;;12.00;86.10;;;;;;5096575;28;20052;-63
2023/03/13 03:54:49;;;;;;;7.47;3.35;;;12.00;86.20;;;;;;5089228;28;20405;-63
2023/03/13 03:57:16;;;;;;;9.05;3.78;;;12.00;86.30;;;;;;5079664;28;20134;-63
2023/03/13 03:59:44;;;;;;;6.90;3.17;;;12.00;86.30;;;;;;5083833;28;20035;-63
2023/03/13 04:02:10;;;;;;;6.88;3.13;;;12.00;86.30;;;;;;5103283;28;20024;-63
2023/03/13 04:04:37;;;;;;;7.18;3.50;;;12.00;86.40;;;;;;5089464;28;20042;-63
2023/03/13 04:07:13;;;;;;;8.10;3.33;;;12.00;86.50;;;;;;5076020;28;20050;-63
2023/03/13 04:09:40;;;;;;;6.65;2.90;;;12.00;86.50;;;;;;5103624;28;20123;-63
2023/03/13 04:12:08;;;;;;;7.07;3.72;;;12.10;86.70;;;;;;5091288;28;20264;-63
2023/03/13 04:14:38;;;;;;;7.15;3.28;;;12.10;86.80;;;;;;5078981;28;20664;-63
2023/03/13 04:17:06;;;;;;;7.45;3.60;;;12.10;86.80;;;;;;5100360;28;20031;-63
2023/03/13 04:19:32;;;;;;;8.18;3.20;;;12.10;86.80;;;;;;5093790;28;20028;-63
2023/03/13 04:21:58;;;;;;;6.70;3.20;;;12.10;86.80;;;;;;5093591;28;20406;-63
2023/03/13 04:24:24;;;;;;;7.93;3.75;;;12.10;86.90;;;;;;5102996;28;20023;-63
2023/03/13 04:26:50;;;;;;;6.40;3.10;;;12.20;87.00;;;;;;5080638;28;20025;-63
2023/03/13 04:29:16;;;;;;;9.25;3.55;;;12.20;87.10;;;;;;5096349;28;20024;-63
2023/03/13 04:32:01;;;;;;;6.95;3.28;;;12.20;87.10;;;;;;5077656;28;20049;-63
2023/03/13 04:34:33;;;;;;;8.55;3.30;;;12.20;87.10;;;;;;5092615;28;20043;-63
2023/03/13 04:37:17;;;;;;;7.68;3.47;;;12.20;87.20;;;;;;5090152;28;20063;-63
2023/03/13 04:40:06;;;;;;;7.47;3.42;;;12.20;87.20;;;;;;5088596;28;20021;-63
2023/03/13 04:42:42;;;;;;;7.68;3.20;;;12.20;87.20;;;;;;5076221;28;20031;-63
2023/03/13 04:45:19;;;;;;;9.13;3.88;;;12.20;87.20;;;;;;5090555;28;20067;-63
2023/03/13 04:47:57;;;;;;;6.75;3.33;;;12.30;87.30;;;;;;5065795;28;20028;-63
2023/03/13 04:50:35;;;;;;;7.80;3.47;;;12.30;87.30;;;;;;5077187;28;20105;-63
2023/03/13 04:53:13;;;;;;;9.20;4.10;;;12.30;87.30;;;;;;5094577;28;20017;-63
2023/03/13 04:55:50;;;;;;;9.75;3.92;;;12.30;87.30;;;;;;5081771;28;20416;-63
2023/03/13 04:58:42;;;;;;;9.10;3.65;;;12.40;87.40;;;;;;5084400;28;20442;-63
2023/03/13 05:01:17;;;;;;;9.75;4.10;;;12.30;87.40;;;;;;5064693;28;20337;-63
2023/03/13 05:04:06;;;;;;;9.02;4.40;;;12.40;87.50;;;;;;5079323;28;20039;-63
2023/03/13 05:06:55;;;;;;;9.25;4.43;;;12.40;87.50;;;;;;5084678;28;20083;-63
2023/03/13 05:09:39;;;;;;;9.73;3.85;;;12.40;87.50;;;;;;5073399;28;20079;-63
2023/03/13 05:12:28;;;;;;;7.85;4.10;;;12.40;87.50;;;;;;5089182;28;20437;-63
2023/03/13 05:15:02;;;;;;;8.23;4.18;;;12.50;87.50;;;;;;5076106;28;20479;-63
2023/03/13 05:17:41;;;;;;;8.68;4.40;;;12.50;87.50;;;;;;5083942;28;20023;-63
2023/03/13 05:20:19;;;;;;;8.93;4.75;;;12.50;87.50;;;;;;5075898;28;20330;-63
2023/03/13 05:23:16;;;;;;;6.70;3.78;;;12.50;87.60;;;;;;5073609;28;20060;-63
2023/03/13 05:26:00;;;;;;;8.27;4.38;;;12.50;87.50;;;;;;5074780;28;20042;-63
2023/03/13 05:28:46;;;;;;;7.95;4.82;;;12.50;87.50;;;;;;5079882;28;20052;-63
2023/03/13 05:31:38;;;;;;;12.02;5.28;;;12.50;87.50;;;;;;5066515;28;20028;-63
2023/03/13 05:34:09;;;;;;;9.30;4.22;;;12.60;87.60;;;;;;5077053;28;20078;-63
2023/03/13 05:37:10;;;;;;;8.43;4.65;;;12.60;87.60;;;;;;5075474;28;20185;-63
2023/03/13 05:39:55;;;;;;;8.73;4.18;;;12.60;87.60;;;;;;5092586;28;20054;-63
2023/03/13 05:42:30;;;;;;;9.95;4.20;;;12.60;87.60;;;;;;5084828;28;20024;-63
2023/03/13 05:45:15;;;;;;;8.32;4.25;;;12.60;87.60;;;;;;5096402;28;20065;-63
2023/03/13 05:48:07;;;;;;;8.07;4.13;;;12.60;87.60;;;;;;5068187;28;20016;-63
2023/03/13 05:50:41;;;;;;;9.57;4.07;;;12.60;87.50;;;;;;5086319;28;20414;-63
2023/03/13 05:53:29;;;;;;;8.68;4.28;;;12.70;87.60;;;;;;5077619;28;20059;-63
2023/03/13 05:56:15;;;;;;;7.95;3.45;;;12.70;87.60;;;;;;5105513;28;20032;-63
2023/03/13 05:58:55;;;;;;;7.78;4.07;;;12.70;87.50;;;;;;5080922;28;20112;-63
2023/03/13 06:01:56;;;;;;;9.55;4.18;;;12.70;87.60;;;;;;5102172;28;20061;-63
2023/03/13 06:04:30;;;;;;;11.63;4.53;;;12.70;87.50;;;;;;5093490;28;20457;-63
2023/03/13 06:06:56;;;;;;;9.30;4.38;;;12.70;87.50;;;;;;5089938;28;20039;-63
2023/03/13 06:09:23;;;;;;;8.85;4.57;;;12.70;87.50;;;;;;5071901;28;20043;-63
2023/03/13 06:11:49;;;;;;;9.88;4.57;;;12.70;87.50;;;;;;5105962;28;20020;-63
2023/03/13 06:14:17;;;;;;;9.35;4.20;;;12.80;87.50;;;;;;5092629;28;20103;-63
2023/03/13 06:17:00;;;;;;;9.98;4.43;;;12.80;87.50;;;;;;5092000;28;20039;-63
2023/03/13 06:19:27;;;;;;;9.60;4.72;;;12.80;87.50;;;;;;5070104;28;20028;-63
2023/03/13 06:21:52;;;;;;;10.27;4.57;;;12.80;87.40;;;;;;5096897;28;20015;-63
2023/03/13 06:24:18;;;;;;;8.27;4.43;;;12.80;87.40;;;;;;5093875;28;20120;-63
2023/03/13 06:26:46;;;;;;;8.25;4.30;;;12.90;87.40;;;;;;5092714;28;20094;-63
2023/03/13 06:29:12;;;;;;;10.43;3.90;;;12.90;87.40;;;;;;5092501;28;20030;-63
2023/03/13 06:31:38;;;;;;;9.90;3.97;;;12.90;87.30;;;;;;5092662;28;20111;-63
2023/03/13 06:34:05;;;;;;;9.70;4.47;;;12.90;87.30;;;;;;5096939;28;20432;-63
2023/03/13 06:36:30;;;;;;;9.27;4.28;;;12.90;87.20;;;;;;5090231;28;20093;-63
2023/03/13 06:38:56;;;;;;;8.98;4.00;;;12.90;87.10;;;;;;5092337;28;20024;-63
2023/03/13 06:41:23;;;;;;;8.48;4.07;;;13.00;87.10;;;;;;5087187;28;20355;-63
2023/03/13 06:43:49;;;;;;;9.85;4.00;;;13.00;87.10;;;;;;5099952;28;20024;-64
2023/03/13 06:46:17;;;;;;;6.85;3.78;;;13.00;87.00;;;;;;5091190;28;20050;-63
2023/03/13 06:48:43;;;;;;;9.10;4.15;;;13.00;87.00;;;;;;5081316;28;20055;-63
2023/03/13 06:51:14;;;;;;;10.30;3.83;;;13.00;86.90;;;;;;5090099;28;20067;-63
2023/03/13 06:53:40;;;;;;;8.93;3.85;;;13.00;86.90;;;;;;5104141;28;20024;-63
2023/03/13 06:56:06;;;;;;;7.93;3.33;;;13.00;86.80;;;;;;5092133;28;20028;-63
2023/03/13 06:58:33;;;;;;;13.55;4.05;;;13.00;86.80;;;;;;5078294;28;20016;-63
2023/03/13 07:01:10;;;;;;;8.27;3.38;;;13.00;86.70;;;;;;5096982;28;20027;-63
2023/03/13 07:03:37;;;;;;;11.02;3.72;;;13.10;86.60;;;;;;5093869;28;20013;-64
2023/03/13 07:06:04;;;;;;;10.10;3.58;;;13.10;86.50;;;;;;5095629;28;20413;-64
2023/03/13 07:08:31;;;;;;;7.30;2.97;;;13.10;86.50;;;;;;5095675;28;20103;-63
2023/03/13 07:10:59;;;;;;;9.27;3.28;;;13.10;86.30;;;;;;5094504;28;20143;-63
2023/03/13 07:13:25;;;;;;;8.45;3.30;;;13.10;86.20;;;;;;5095946;28;20456;-63
2023/03/13 07:15:52;;;;;;;8.15;3.47;;;13.10;86.10;;;;;;5095787;28;20103;-64
2023/03/13 07:18:18;;;;;;;7.97;3.47;;;13.20;86.10;;;;;;5096921;28;20341;-63
2023/03/13 07:20:50;;;;;;;8.75;3.33;;;13.20;86.00;;;;;;5095446;28;20029;-63
2023/03/13 07:23:16;;;;;;;;;;;13.20;85.80;;;;;;5111446;28;20341;-63
2023/03/13 07:25:41;;;;;;;9.30;3.45;;;13.20;85.80;;;;;;5097004;28;19908;-63
2023/03/13 07:28:07;;;;;;;10.73;3.17;;;13.20;85.60;;;;;;5095858;28;20051;-63
2023/03/13 07:30:33;;;;;;;9.80;3.92;;;13.20;85.50;;;;;;5095937;28;20032;-63
2023/03/13 07:32:59;;;;;;;9.60;3.63;;;13.30;85.50;;;;;;5089117;28;20119;-63
2023/03/13 07:35:24;;;;;;;9.98;3.38;;;13.30;85.40;;;;;;5100536;28;20023;-63
2023/03/13 07:37:51;;;;;;;8.13;3.55;;;13.30;85.30;;;;;;5096724;28;20077;-63
2023/03/13 07:40:17;;;;;;;10.07;3.47;;;13.40;85.20;;;;;;5093062;28;20024;-63
2023/03/13 07:42:44;;;;;;;7.38;3.40;;;13.40;85.10;;;;;;5095096;28;20019;-63
2023/03/13 07:45:10;;;;;;;8.25;3.28;;;13.40;85.00;;;;;;5096672;28;20387;-63
2023/03/13 07:47:35;;;;;;;7.45;2.88;;;13.40;85.50;;;;;;5086705;28;20122;-63
2023/03/13 07:50:01;;;;;;;7.72;2.72;;;13.50;84.90;;;;;;5093746;28;20028;-63
2023/03/13 07:52:27;;;;;;;7.63;2.97;;;13.50;84.80;;;;;;5093457;28;20516;-63
2023/03/13 07:54:53;;;;;;;8.55;2.92;;;13.50;84.70;;;;;;5105474;28;20024;-63
2023/03/13 07:57:19;;;;;;;10.80;3.67;;;13.50;84.60;;;;;;5106869;28;20111;-63
2023/03/13 07:59:45;;;;;;;9.27;3.20;;;13.60;84.50;;;;;;5092139;28;20322;-63
2023/03/13 08:02:12;;;;;;;6.38;2.60;;;13.60;84.40;;;;;;5075657;28;20427;-63
2023/03/13 08:04:39;;;;;;;8.05;3.67;;;13.60;84.40;;;;;;5091805;28;20036;-63
2023/03/13 08:07:09;;;;;;;10.18;2.83;;;13.60;84.30;;;;;;5093962;28;20028;-64
2023/03/13 08:09:35;;;;;;;11.75;3.80;;;13.60;84.30;;;;;;5076432;28;20048;-64
2023/03/13 08:12:01;;;;;;;8.00;3.47;;;13.60;84.30;;;;;;5094574;28;20112;-63
2023/03/13 08:14:26;;;;;;;9.13;3.10;;;13.60;84.30;;;;;;5069709;28;20473;-63
2023/03/13 08:16:52;;;;;;;7.78;3.13;;;13.60;84.30;;;;;;5094549;28;20035;-65
2023/03/13 08:19:18;;;;;;;6.70;2.70;;;13.50;84.40;;;;;;5090989;28;20356;-63
2023/03/13 08:21:44;;;;;;;8.25;2.83;;;13.50;84.50;;;;;;5095226;28;20448;-63
2023/03/13 08:24:11;;;;;;;8.25;2.78;;;13.60;84.50;;;;;;5093946;28;20020;-64
2023/03/13 08:26:39;;;;;;;8.05;2.72;;;13.60;85.20;;;;;;5086822;28;20400;-64
2023/03/13 08:29:08;;;;;;;5.90;2.50;;;13.60;84.50;;;;;;5088452;28;20346;-63
2023/03/13 08:31:42;;;;;;;6.57;2.58;;;13.70;84.40;;;;;;5091691;28;20028;-63
2023/03/13 08:34:10;;;;;;;10.07;2.72;;;13.80;84.10;;;;;;5091989;28;20027;-64
2023/03/13 08:36:36;;;;;;;8.18;2.92;;;13.90;83.90;;;;;;5077548;28;20043;-65
2023/03/13 08:39:06;;;;;;;7.05;2.97;;;14.00;83.70;;;;;;5101387;28;20024;-64
2023/03/13 08:41:35;;;;;;;6.63;2.65;;;14.00;83.60;;;;;;5082267;28;20056;-64
2023/03/13 08:44:04;;;;;;;10.00;2.67;;;14.00;84.20;;;;;;5093386;28;20448;-65
2023/03/13 08:46:31;;;;;;;6.53;2.70;;;14.00;83.60;;;;;;5093158;28;20024;-64
2023/03/13 08:48:57;;;;;;;9.02;3.05;;;13.90;83.70;;;;;;5087982;28;20032;-64
2023/03/13 08:51:26;;;;;;;8.95;3.00;;;13.90;83.90;;;;;;5100770;28;20032;-64
2023/03/13 08:53:54;;;;;;;6.60;2.80;;;13.90;84.00;;;;;;5093552;28;20028;-64
2023/03/13 08:56:22;;;;;;;6.60;2.53;;;13.90;84.10;;;;;;5096062;28;20032;-63
2023/03/13 08:58:50;;;;;;;5.80;2.45;;;13.90;84.10;;;;;;5091918;28;20445;-64
2023/03/13 09:01:16;;;;;;;7.47;3.00;;;13.90;84.10;;;;;;5087672;28;20028;-64
2023/03/13 09:03:42;;;;;;;8.43;3.10;;;14.00;83.90;;;;;;5099105;28;20423;-63
2023/03/13 09:06:09;;;;;;;7.55;2.72;;;14.10;83.80;;;;;;5096559;28;20107;-64
2023/03/13 09:08:36;;;;;;;6.18;2.33;;;14.20;83.50;;;;;;5096814;28;20043;-64
2023/03/13 09:11:06;;;;;;;10.68;2.60;;;14.20;83.20;;;;;;5086677;28;20075;-64
2023/03/13 09:13:34;;;;;;;8.35;2.80;;;14.40;83.00;;;;;;5074736;28;20063;-64
2023/03/13 09:16:03;;;;;;;8.25;2.70;;;14.50;82.70;;;;;;5079496;28;20036;-64
2023/03/13 09:18:30;;;;;;;7.75;2.72;;;14.70;82.30;;;;;;5080609;28;20020;-64
2023/03/13 09:20:55;;;;;;;10.23;3.25;;;14.80;82.00;;;;;;5092193;28;20016;-64
2023/03/13 09:23:23;;;;;;;8.35;2.53;;;14.80;81.70;;;;;;5092473;28;20394;-64
2023/03/13 09:25:52;;;;;;;8.70;2.70;;;14.80;81.50;;;;;;5092178;28;20062;-64
2023/03/13 09:28:18;;;;;;;6.47;2.38;;;14.70;81.40;;;;;;5094704;28;20352;-64
2023/03/13 09:30:45;;;;;;;7.85;2.60;;;14.70;81.40;;;;;;5092331;28;20456;-64
2023/03/13 09:33:11;;;;;;;7.00;2.33;;;14.70;81.20;;;;;;5093121;28;20389;-64
2023/03/13 09:35:40;;;;;;;6.93;2.10;;;14.80;81.00;;;;;;5097665;28;20028;-64
2023/03/13 09:38:07;;;;;;;6.07;1.90;;;14.80;80.70;;;;;;5091696;28;20031;-64
2023/03/13 09:40:46;;;;;;;8.10;2.65;;;14.80;80.50;;;;;;5076981;28;20544;-64
2023/03/13 09:43:21;;;;;;;7.03;2.20;;;14.90;80.30;;;;;;5091983;28;20024;-64
2023/03/13 09:45:51;;;;;;;5.20;2.13;;;15.00;80.60;;;;;;5083880;28;20043;-64
2023/03/13 09:48:23;;;;;;;5.63;1.92;;;15.00;79.70;;;;;;5080467;28;20267;-64
2023/03/13 09:51:10;;;;;;;6.75;2.28;;;15.10;79.60;;;;;;5091150;28;20304;-64
2023/03/13 09:53:48;;;;;;;8.70;2.13;;;15.10;79.40;;;;;;5090453;28;20064;-64
2023/03/13 09:56:22;;;;;;;5.32;2.33;;;15.10;79.40;;;;;;5091669;28;20032;-64
2023/03/13 09:59:12;;;;;;;5.72;1.90;;;15.00;79.30;;;;;;5078369;28;20024;-64
2023/03/13 10:01:41;;;;;;;6.88;2.30;;;15.00;79.30;;;;;;5087251;28;20365;-63
2023/03/13 10:04:32;;;;;;;8.85;2.63;;;15.00;79.40;;;;;;5084766;28;20077;-64
2023/03/13 10:06:58;;;;;;;6.57;2.00;;;14.90;79.40;;;;;;5092883;28;20496;-64
2023/03/13 10:09:29;;;;;;;4.43;2.05;;;14.90;79.40;;;;;;5109557;28;20169;-64
2023/03/13 10:12:14;;;;;;;6.00;2.60;;;14.90;79.20;;;;;;5091028;28;20385;-64
2023/03/13 10:14:59;;;;;;;5.68;2.10;;;14.90;79.20;;;;;;5088809;28;20461;-63
2023/03/13 10:17:34;;;;;;;7.47;2.33;;;14.90;79.00;;;;;;5092779;28;20043;-64
2023/03/13 10:20:31;;;;;;;5.13;2.17;;;15.00;78.90;;;;;;5093355;28;20390;-64
2023/03/13 10:23:12;;;;;;;5.68;2.40;;;15.00;78.80;;;;;;5087170;28;20024;-64
2023/03/13 10:25:39;;;;;;;6.63;2.45;;;15.00;78.70;;;;;;5096315;28;20031;-64
2023/03/13 10:28:09;;;;;;;6.60;2.17;;;15.20;78.30;;;;;;5096892;28;20458;-64
2023/03/13 10:30:38;;;;;;;6.35;2.08;;;15.40;77.80;;;;;;5096922;28;20093;-64
2023/03/13 10:33:07;;;;;;;5.32;2.03;;;15.40;77.50;;;;;;5093294;28;20023;-64
2023/03/13 10:35:37;;;;;;;5.18;2.15;;;15.40;77.20;;;;;;5097287;28;20024;-64
2023/03/13 10:38:09;;;;;;;5.75;1.90;;;15.40;77.10;;;;;;5097647;28;20494;-64
2023/03/13 10:40:35;;;;;;;6.05;2.33;;;15.40;76.80;;;;;;5079327;28;20052;-64
2023/03/13 10:43:20;;;;;;;7.03;2.35;;;15.40;76.80;;;;;;5095593;28;20460;-65
2023/03/13 10:45:47;;;;;;;4.55;2.17;;;15.50;76.70;;;;;;5098042;28;20318;-64
2023/03/13 10:48:24;;;;;;;6.30;2.40;;;15.50;76.60;;;;;;5094393;28;20028;-64
2023/03/13 10:50:56;;;;;;;6.47;2.42;;;15.50;76.30;;;;;;5096239;28;20064;-64
2023/03/13 10:53:28;;;;;;;7.53;2.45;;;15.50;76.20;;;;;;5095523;28;20028;-64
2023/03/13 10:56:13;;;;;;;5.75;2.17;;;15.60;76.10;;;;;;5096230;28;20028;-65
2023/03/13 10:58:44;;;;;;;5.47;1.90;;;15.60;75.80;;;;;;5097266;28;20106;-64
2023/03/13 11:01:23;;;;;;;6.20;2.10;;;15.60;75.70;;;;;;5096127;28;20031;-64
2023/03/13 11:03:51;;;;;;;4.50;2.10;;;15.70;75.60;;;;;;5078303;28;20411;-64
2023/03/13 11:06:27;;;;;;;5.93;1.88;;;15.70;75.30;;;;;;5096209;28;20059;-64
2023/03/13 11:09:17;;;;;;;5.30;2.08;;;15.80;74.70;;;;;;5085452;28;20034;-65
2023/03/13 11:11:46;;;;;;;6.78;2.20;;;15.90;74.40;;;;;;5091720;28;20055;-64
2023/03/13 11:14:15;;;;;;;5.32;1.75;;;15.90;74.00;;;;;;5078152;28;20046;-64
2023/03/13 11:17:04;;;;;;;5.05;2.10;;;16.10;73.60;;;;;;5085401;28;20105;-65
2023/03/13 11:19:57;;;;;;;4.95;1.80;;;16.10;73.30;;;;;;5085633;28;20020;-64
2023/03/13 11:22:34;;;;;;;4.43;1.83;;;16.20;73.10;;;;;;5096747;28;20038;-64
2023/03/13 11:25:11;;;;;;;4.32;1.73;;;16.30;73.10;;;;;;5091545;28;20032;-65
2023/03/13 11:27:53;;;;;;;4.40;1.88;;;16.40;72.70;;;;;;5096771;28;20028;-64
2023/03/13 11:30:50;;;;;;;7.18;2.22;;;16.50;72.40;;;;;;5097048;28;20107;-65
2023/03/13 11:33:29;;;;;;;3.75;1.55;;;16.80;72.00;;;;;;5095504;28;20055;-65
2023/03/13 11:35:54;;;;;;;5.00;1.70;;;17.00;71.60;;;;;;5095179;28;20027;-65
2023/03/13 11:38:27;;;;;;;5.22;1.50;;;17.00;71.30;;;;;;5096376;28;20031;-65
2023/03/13 11:41:06;;;;;;;6.97;2.05;;;17.00;71.00;;;;;;5095855;28;20028;-65
2023/03/13 11:43:44;;;;;;;4.20;1.50;;;17.10;70.70;;;;;;5095430;28;20040;-64
2023/03/13 11:46:30;;;;;;;4.80;1.60;;;17.10;70.70;;;;;;5090414;28;20020;-65
2023/03/13 11:49:16;;;;;;;3.83;1.60;;;17.20;70.40;;;;;;5096484;28;20016;-65
2023/03/13 11:51:54;;;;;;;4.53;1.52;;;17.40;69.90;;;;;;5095361;28;20024;-65
2023/03/13 11:54:50;;;;;;;4.70;1.80;;;17.50;69.60;;;;;;5078798;28;20028;-64
2023/03/13 11:57:48;;;;;;;5.43;1.67;;;17.60;69.50;;;;;;5089654;28;20032;-64
2023/03/13 12:00:28;;;;;;;5.75;1.67;;;17.80;69.00;;;;;;5095450;28;20293;-65
2023/03/13 12:02:57;;;;;;;4.88;1.55;;;17.80;68.40;;;;;;5095495;28;20024;-64
2023/03/13 12:05:25;;;;;;;5.22;1.63;;;17.90;68.10;;;;;;5093163;28;20032;-65
2023/03/13 12:08:03;;;;;;;2.65;1.20;;;17.80;67.90;;;;;;5100268;28;20027;-64
2023/03/13 12:10:46;;;;;;;5.55;1.70;;;17.70;67.80;;;;;;5079934;28;20056;-64
2023/03/13 12:13:31;;;;;;;4.35;1.70;;;17.60;67.90;;;;;;5104535;28;20038;-65
2023/03/13 12:16:05;;;;;;;5.30;1.60;;;17.60;67.80;;;;;;5094548;28;20024;-65
2023/03/13 12:18:39;;;;;;;5.15;1.35;;;17.60;67.60;;;;;;5091018;28;20043;-65
2023/03/13 12:21:11;;;;;;;4.75;1.52;;;17.50;67.30;;;;;;5091138;28;20024;-64
2023/03/13 12:24:00;;;;;;;4.35;1.77;;;17.50;67.10;;;;;;5074758;28;20149;-64
2023/03/13 12:27:02;;;;;;;5.60;1.50;;;17.40;66.50;;;;;;5069190;28;20068;-65
2023/03/13 12:29:57;;;;;;;5.88;1.80;;;17.40;66.60;;;;;;5080592;28;20047;-65
2023/03/13 12:32:58;;;;;;;6.68;1.55;;;17.40;66.60;;;;;;5100244;28;20069;-65
2023/03/13 12:35:29;;;;;;;4.15;1.48;;;17.30;66.40;;;;;;5096939;28;20097;-65
2023/03/13 12:38:05;;;;;;;3.10;1.48;;;17.40;66.60;;;;;;5089280;28;20088;-65
2023/03/13 12:40:46;;;;;;;2.92;1.48;;;17.30;66.50;;;;;;5088385;28;20038;-65
2023/03/13 12:43:23;;;;;;;4.63;1.90;;;17.30;66.40;;;;;;5094426;28;20057;-64
2023/03/13 12:45:58;;;;;;;4.72;1.60;;;17.30;66.50;;;;;;5090308;28;20031;-64
2023/03/13 12:48:38;;;;;;;4.88;1.73;;;17.20;66.40;;;;;;5089669;28;20399;-64
2023/03/13 12:51:10;;;;;;;4.25;1.58;;;17.30;66.30;;;;;;5093132;28;20028;-66
2023/03/13 12:54:08;;;;;;;4.22;1.48;;;17.40;66.00;;;;;;5087569;28;20420;-64
2023/03/13 12:56:46;;;;;;;6.50;1.88;;;17.60;65.80;;;;;;5081388;28;20040;-64
2023/03/13 12:59:14;;;;;;;4.90;1.45;;;17.70;65.60;;;;;;5096532;28;20030;-64
2023/03/13 13:01:47;;;;;;;4.28;1.63;;;17.70;65.10;;;;;;5093915;28;20378;-64
2023/03/13 13:04:17;;;;;;;5.90;1.60;;;17.70;64.70;;;;;;5093922;28;20020;-65
2023/03/13 13:07:18;;;;;;;5.13;1.65;;;17.70;64.40;;;;;;5093405;28;20157;-65
2023/03/13 13:10:08;;;;;;;6.30;1.63;;;17.60;63.90;;;;;;5086439;28;20074;-66
2023/03/13 13:12:46;;;;;;;5.28;1.55;;;17.60;64.00;;;;;;5077180;28;20039;-65